Time;durP1;ratioP1;P1;durP2;ratioP2;P2;SDS_P1;SDS_P2;PMS_P1;PMS_P2;Temp;Humidity;BMP_temperature;BMP_pressure;BME280_temperature;BME280_humidity;BME280_pressure;Samples;Min_cycle;Max_cycle;Signal;HPM_P1;HPM_P2
2021/11/07 00:01:44;;;;;;;33.35;20.58;;;3.50;99.90;;;;;;2660328;22;20243;-65
2021/11/07 00:03:08;;;;;;;26.38;19.02;;;3.50;99.90;;;;;;2653928;28;20870;-65
2021/11/07 00:04:36;;;;;;;34.42;20.13;;;3.50;99.90;;;;;;2658497;28;20694;-66
2021/11/07 00:06:02;;;;;;;30.98;19.58;;;3.50;99.90;;;;;;2657746;28;20668;-66
2021/11/07 00:07:22;;;;;;;32.67;19.27;;;3.60;99.90;;;;;;2656399;28;20206;-66
2021/11/07 00:08:49;;;;;;;42.72;22.98;;;3.50;99.90;;;;;;2658305;28;20561;-66
2021/11/07 00:10:13;;;;;;;31.02;20.27;;;3.50;99.90;;;;;;2658838;28;20206;-66
2021/11/07 00:11:34;;;;;;;42.55;20.85;;;3.60;99.90;;;;;;2658195;28;20716;-66
2021/11/07 00:13:04;;;;;;;30.60;20.92;;;3.60;99.90;;;;;;2651949;28;20241;-66
2021/11/07 00:14:24;;;;;;;33.53;20.65;;;3.70;99.90;;;;;;2658266;28;20257;-66
2021/11/07 00:15:43;;;;;;;30.02;21.00;;;3.60;99.90;;;;;;2658441;28;20314;-66
2021/11/07 00:17:01;;;;;;;35.28;21.38;;;3.70;99.90;;;;;;2658802;28;20203;-66
2021/11/07 00:18:22;;;;;;;30.77;20.87;;;3.70;99.90;;;;;;2658279;28;20203;-66
2021/11/07 00:19:44;;;;;;;40.08;22.67;;;3.70;99.90;;;;;;2657819;28;20457;-66
2021/11/07 00:21:06;;;;;;;33.92;22.65;;;3.70;99.90;;;;;;2656131;28;20633;-66
2021/11/07 00:22:32;;;;;;;38.72;22.98;;;3.80;99.90;;;;;;2658618;28;20199;-66
2021/11/07 00:23:59;;;;;;;36.83;21.63;;;3.70;99.90;;;;;;2659456;28;20241;-66
2021/11/07 00:25:22;;;;;;;35.25;21.48;;;3.70;99.90;;;;;;2658384;28;20208;-66
2021/11/07 00:26:51;;;;;;;40.65;21.70;;;3.60;99.90;;;;;;2658388;28;20199;-66
2021/11/07 00:28:16;;;;;;;46.67;23.98;;;3.70;99.90;;;;;;2658542;28;20230;-66
2021/11/07 00:29:39;;;;;;;42.35;23.20;;;3.80;99.90;;;;;;2658013;28;20593;-66
2021/11/07 00:31:04;;;;;;;34.42;21.75;;;3.70;99.90;;;;;;2655183;28;20202;-66
2021/11/07 00:32:27;;;;;;;43.88;22.92;;;3.70;99.90;;;;;;2658454;28;20210;-66
2021/11/07 00:34:07;;;;;;;48.40;22.00;;;3.80;99.90;;;;;;2652467;28;20195;-66
2021/11/07 00:37:03;;;;;;;74.50;23.98;;;3.90;99.90;;;;;;2646604;28;20657;-66
2021/11/07 00:38:23;;;;;;;40.83;22.42;;;3.90;99.90;;;;;;2658730;28;20592;-66
2021/11/07 00:39:45;;;;;;;31.48;21.23;;;3.90;99.90;;;;;;2658689;28;20218;-66
2021/11/07 00:41:15;;;;;;;66.13;22.75;;;4.00;99.90;;;;;;2664287;28;20195;-66
2021/11/07 00:42:41;;;;;;;65.80;22.90;;;3.80;99.90;;;;;;2658322;28;20677;-66
2021/11/07 00:44:05;;;;;;;38.83;21.40;;;3.80;99.90;;;;;;2657577;28;20789;-66
2021/11/07 00:45:29;;;;;;;34.78;20.90;;;3.80;99.90;;;;;;2658618;28;20282;-66
2021/11/07 00:46:50;;;;;;;42.67;22.67;;;3.80;99.90;;;;;;2654499;28;20596;-66
2021/11/07 00:48:22;;;;;;;44.03;21.92;;;3.80;99.90;;;;;;2655521;28;20656;-66
2021/11/07 00:49:43;;;;;;;37.95;23.05;;;3.70;99.90;;;;;;2657484;28;20203;-66
2021/11/07 00:51:09;;;;;;;35.92;21.92;;;3.80;99.90;;;;;;2654955;28;20234;-66
2021/11/07 00:52:33;;;;;;;43.95;21.30;;;3.90;99.90;;;;;;2656768;28;20261;-66
2021/11/07 00:54:01;;;;;;;32.53;22.60;;;4.00;99.90;;;;;;2656481;28;20202;-66
2021/11/07 00:55:24;;;;;;;38.90;22.33;;;3.90;99.90;;;;;;2658011;28;20222;-66
2021/11/07 00:56:45;;;;;;;39.97;23.15;;;3.90;99.90;;;;;;2658209;28;20680;-66
2021/11/07 00:58:08;;;;;;;40.60;23.45;;;3.80;99.90;;;;;;2658281;28;20241;-66
2021/11/07 00:59:36;;;;;;;33.13;23.30;;;3.70;99.90;;;;;;2658330;28;20289;-66
2021/11/07 01:01:01;;;;;;;32.22;22.90;;;3.70;99.90;;;;;;2659058;28;20215;-66
2021/11/07 01:02:25;;;;;;;32.80;23.42;;;3.80;99.90;;;;;;2657575;28;20249;-66
2021/11/07 01:03:43;;;;;;;32.88;23.10;;;3.80;99.90;;;;;;2657299;28;20836;-66
2021/11/07 01:05:05;;;;;;;29.30;21.80;;;3.80;99.90;;;;;;2656019;28;20325;-66
2021/11/07 01:06:23;;;;;;;30.77;22.58;;;3.80;99.90;;;;;;2658465;28;20191;-66
2021/11/07 01:07:42;;;;;;;30.58;21.98;;;3.90;99.90;;;;;;2658180;28;20221;-66
2021/11/07 01:09:00;;;;;;;28.10;21.45;;;4.00;99.90;;;;;;2657884;28;20203;-66
2021/11/07 01:10:19;;;;;;;31.23;22.85;;;3.90;99.90;;;;;;2657810;28;20285;-66
2021/11/07 01:11:38;;;;;;;30.05;21.85;;;3.90;99.90;;;;;;2654844;28;20199;-66
2021/11/07 01:12:58;;;;;;;37.80;22.45;;;3.80;99.90;;;;;;2658243;28;20207;-66
2021/11/07 01:14:17;;;;;;;30.60;22.17;;;3.80;99.90;;;;;;2657606;28;20229;-66
2021/11/07 01:15:37;;;;;;;27.13;20.25;;;3.80;99.90;;;;;;2657886;28;20563;-66
2021/11/07 01:16:56;;;;;;;31.45;21.40;;;3.90;99.90;;;;;;2657847;28;20253;-66
2021/11/07 01:18:15;;;;;;;36.53;21.63;;;3.90;99.90;;;;;;2658055;28;20198;-66
2021/11/07 01:19:33;;;;;;;33.20;23.50;;;3.80;99.90;;;;;;2657846;28;20214;-66
2021/11/07 01:20:52;;;;;;;35.13;21.02;;;3.70;99.90;;;;;;2658196;28;20209;-66
2021/11/07 01:22:16;;;;;;;29.75;20.88;;;3.70;99.90;;;;;;2655135;28;20199;-66
2021/11/07 01:23:38;;;;;;;33.17;22.73;;;3.70;99.90;;;;;;2656494;28;20922;-66
2021/11/07 01:24:59;;;;;;;30.55;22.05;;;3.70;99.90;;;;;;2656941;28;20246;-66
2021/11/07 01:26:21;;;;;;;28.10;19.83;;;3.70;99.90;;;;;;2660937;28;20277;-66
2021/11/07 01:27:42;;;;;;;29.10;21.83;;;3.70;99.90;;;;;;2658128;28;20721;-66
2021/11/07 01:29:05;;;;;;;27.45;21.98;;;3.70;99.90;;;;;;2657480;28;20722;-66
2021/11/07 01:30:27;;;;;;;30.10;21.70;;;3.70;99.90;;;;;;2658199;28;20294;-66
2021/11/07 01:31:48;;;;;;;30.60;21.90;;;3.80;99.90;;;;;;2650082;28;20215;-66
2021/11/07 01:33:12;;;;;;;28.27;20.00;;;3.90;99.90;;;;;;2654862;28;20785;-66
2021/11/07 01:34:44;;;;;;;24.90;19.83;;;3.80;99.90;;;;;;2656944;28;20301;-66
2021/11/07 01:36:15;;;;;;;25.90;20.85;;;3.90;99.90;;;;;;2656256;28;20237;-66
2021/11/07 01:37:37;;;;;;;30.45;20.50;;;3.90;99.90;;;;;;2655673;28;20652;-66
2021/11/07 01:39:03;;;;;;;29.00;21.33;;;3.90;99.90;;;;;;2654747;28;20202;-66
2021/11/07 01:40:24;;;;;;;31.05;22.70;;;4.00;99.90;;;;;;2659599;28;20213;-66
2021/11/07 01:41:57;;;;;;;26.65;20.00;;;4.00;99.90;;;;;;2658057;28;20605;-66
2021/11/07 01:43:17;;;;;;;26.90;19.50;;;3.90;99.90;;;;;;2654703;28;20207;-66
2021/11/07 01:44:37;;;;;;;28.08;17.98;;;3.90;99.90;;;;;;2656007;28;20246;-66
2021/11/07 01:46:03;;;;;;;22.67;17.98;;;3.80;99.90;;;;;;2657974;28;20285;-66
2021/11/07 01:47:25;;;;;;;22.58;17.52;;;3.70;99.90;;;;;;2657337;28;20203;-66
2021/11/07 01:48:46;;;;;;;23.55;17.92;;;3.70;99.90;;;;;;2658463;28;20207;-65
2021/11/07 01:50:06;;;;;;;24.38;16.65;;;3.70;99.90;;;;;;2658037;28;20206;-66
2021/11/07 01:51:25;;;;;;;23.00;19.65;;;3.70;99.90;;;;;;2657901;28;20237;-66
2021/11/07 01:52:44;;;;;;;22.80;17.60;;;3.60;99.90;;;;;;2657864;28;20199;-66
2021/11/07 01:54:10;;;;;;;20.77;16.75;;;3.50;99.90;;;;;;2657080;28;20202;-66
2021/11/07 01:55:29;;;;;;;30.02;19.65;;;3.40;99.90;;;;;;2654349;28;20633;-66
2021/11/07 01:56:48;;;;;;;33.90;19.40;;;3.40;99.90;;;;;;2657228;28;20211;-66
2021/11/07 01:58:07;;;;;;;34.70;19.42;;;3.30;99.90;;;;;;2657367;28;20312;-66
2021/11/07 01:59:25;;;;;;;33.67;20.23;;;3.40;99.90;;;;;;2657542;28;20222;-66
2021/11/07 02:00:45;;;;;;;26.17;17.85;;;3.40;99.90;;;;;;2657338;28;20304;-66
2021/11/07 02:02:03;;;;;;;27.75;19.30;;;3.50;99.90;;;;;;2653738;28;20249;-65
2021/11/07 02:03:24;;;;;;;33.92;21.35;;;3.50;99.90;;;;;;2657667;28;20699;-65
2021/11/07 02:04:43;;;;;;;30.02;20.00;;;3.50;99.90;;;;;;2657590;28;20657;-65
2021/11/07 02:06:03;;;;;;;26.58;20.13;;;3.40;99.90;;;;;;2657061;28;20199;-65
2021/11/07 02:07:22;;;;;;;27.80;20.20;;;3.40;99.90;;;;;;2656364;28;20652;-65
2021/11/07 02:08:42;;;;;;;55.47;22.80;;;3.50;99.90;;;;;;2657287;28;20260;-66
2021/11/07 02:10:01;;;;;;;38.33;21.58;;;3.40;99.90;;;;;;2654527;28;20676;-66
2021/11/07 02:11:20;;;;;;;30.20;21.80;;;3.40;99.90;;;;;;2654496;28;20206;-66
2021/11/07 02:12:40;;;;;;;92.43;27.20;;;3.30;99.90;;;;;;2656780;28;20217;-66
2021/11/07 02:13:59;;;;;;;50.42;24.58;;;3.40;99.90;;;;;;2657510;28;20210;-66
2021/11/07 02:15:20;;;;;;;44.40;25.08;;;3.30;99.90;;;;;;2657186;28;20210;-66
2021/11/07 02:16:40;;;;;;;63.13;24.48;;;3.30;99.90;;;;;;2657466;28;20200;-66
2021/11/07 02:17:58;;;;;;;35.40;23.52;;;3.20;99.90;;;;;;2657835;28;20207;-66
2021/11/07 02:19:18;;;;;;;36.38;25.05;;;3.30;99.90;;;;;;2657347;28;20213;-66
2021/11/07 02:20:41;;;;;;;34.70;25.08;;;3.40;99.90;;;;;;2657848;28;20207;-66
2021/11/07 02:22:00;;;;;;;46.45;22.92;;;3.40;99.90;;;;;;2657568;28;20403;-66
2021/11/07 02:23:22;;;;;;;69.45;24.83;;;3.30;99.90;;;;;;2657742;28;20195;-66
2021/11/07 02:24:41;;;;;;;41.45;23.48;;;3.20;99.90;;;;;;2656028;28;20345;-66
2021/11/07 02:26:04;;;;;;;34.75;21.90;;;3.20;99.90;;;;;;2657340;28;20195;-66
2021/11/07 02:27:23;;;;;;;36.33;23.27;;;3.30;99.90;;;;;;2657405;28;20448;-65
2021/11/07 02:28:43;;;;;;;35.92;23.60;;;3.30;99.90;;;;;;2656886;28;20303;-66
2021/11/07 02:30:03;;;;;;;43.75;22.73;;;3.30;99.90;;;;;;2656091;28;20203;-65
2021/11/07 02:31:24;;;;;;;33.05;23.90;;;3.20;99.90;;;;;;2658038;28;20710;-65
2021/11/07 02:32:47;;;;;;;32.45;23.30;;;3.10;99.90;;;;;;2657264;28;20289;-65
2021/11/07 02:34:06;;;;;;;33.58;24.83;;;3.10;99.90;;;;;;2657188;28;20609;-66
2021/11/07 02:35:26;;;;;;;32.08;21.23;;;3.10;99.90;;;;;;2657335;28;20202;-66
2021/11/07 02:36:46;;;;;;;35.88;23.25;;;3.10;99.90;;;;;;2656138;28;20286;-66
2021/11/07 02:38:05;;;;;;;33.20;23.70;;;3.10;99.90;;;;;;2657790;28;20499;-66
2021/11/07 02:39:25;;;;;;;30.27;22.38;;;3.20;99.90;;;;;;2657644;28;20226;-66
2021/11/07 02:40:44;;;;;;;34.50;22.17;;;3.20;99.90;;;;;;2653052;28;20294;-66
2021/11/07 02:42:03;;;;;;;27.27;21.88;;;3.20;99.90;;;;;;2657637;28;20202;-66
2021/11/07 02:43:21;;;;;;;34.60;22.92;;;3.20;99.90;;;;;;2657713;28;20919;-66
2021/11/07 02:44:44;;;;;;;31.20;23.92;;;3.20;99.90;;;;;;2656640;28;20226;-66
2021/11/07 02:46:03;;;;;;;27.52;22.85;;;3.20;99.90;;;;;;2658146;28;20203;-66
2021/11/07 02:47:21;;;;;;;26.75;20.75;;;3.10;99.90;;;;;;2658598;28;20207;-66
2021/11/07 02:48:40;;;;;;;30.60;23.73;;;3.10;99.90;;;;;;2659213;28;20203;-66
2021/11/07 02:49:58;;;;;;;31.80;22.15;;;3.10;99.90;;;;;;2659538;28;20207;-65
2021/11/07 02:51:22;;;;;;;25.65;21.38;;;3.10;99.90;;;;;;2659662;28;20257;-66
2021/11/07 02:52:43;;;;;;;23.73;20.23;;;3.00;99.90;;;;;;2658794;28;20199;-66
2021/11/07 02:54:05;;;;;;;27.92;20.48;;;3.00;99.90;;;;;;2658633;28;20235;-66
2021/11/07 02:55:25;;;;;;;26.27;22.45;;;2.90;99.90;;;;;;2659574;28;20656;-66
2021/11/07 02:56:43;;;;;;;24.75;20.85;;;2.80;99.90;;;;;;2658796;28;20681;-66
2021/11/07 02:58:02;;;;;;;25.17;21.38;;;2.90;99.90;;;;;;2659313;28;20202;-66
2021/11/07 02:59:22;;;;;;;26.98;21.88;;;2.80;99.90;;;;;;2659114;28;20257;-66
2021/11/07 03:00:41;;;;;;;23.98;21.23;;;2.60;99.90;;;;;;2659087;28;20215;-65
2021/11/07 03:02:03;;;;;;;24.38;21.42;;;2.70;99.90;;;;;;2659243;28;20227;-65
2021/11/07 03:03:23;;;;;;;24.00;19.70;;;2.60;99.90;;;;;;2656882;28;20206;-65
2021/11/07 03:04:41;;;;;;;27.05;21.13;;;2.60;99.90;;;;;;2658017;28;20227;-65
2021/11/07 03:06:01;;;;;;;24.38;21.10;;;2.60;99.90;;;;;;2655868;28;20196;-65
2021/11/07 03:07:21;;;;;;;23.45;19.25;;;2.60;99.90;;;;;;2657625;28;20203;-65
2021/11/07 03:08:49;;;;;;;26.25;19.48;;;2.60;99.90;;;;;;2658801;28;20261;-65
2021/11/07 03:10:09;;;;;;;25.08;19.70;;;2.50;99.90;;;;;;2658529;28;20952;-66
2021/11/07 03:11:28;;;;;;;24.77;20.27;;;2.40;99.90;;;;;;2659355;28;20971;-65
2021/11/07 03:12:47;;;;;;;29.15;22.25;;;2.40;99.90;;;;;;2656496;28;20884;-65
2021/11/07 03:14:05;;;;;;;27.15;21.38;;;2.30;99.90;;;;;;2658287;28;20261;-66
2021/11/07 03:15:24;;;;;;;28.80;21.65;;;2.20;99.90;;;;;;2656019;28;20693;-65
2021/11/07 03:16:44;;;;;;;26.08;21.20;;;2.20;99.90;;;;;;2658541;28;20688;-66
2021/11/07 03:18:03;;;;;;;27.55;21.52;;;2.00;99.90;;;;;;2659238;28;20203;-66
2021/11/07 03:19:24;;;;;;;28.73;22.27;;;1.90;99.90;;;;;;2659481;28;20216;-65
2021/11/07 03:20:43;;;;;;;28.15;22.77;;;1.90;99.90;;;;;;2652793;28;20207;-65
2021/11/07 03:22:07;;;;;;;28.90;21.52;;;1.80;99.90;;;;;;2659108;28;20643;-66
2021/11/07 03:23:26;;;;;;;27.48;22.83;;;1.70;99.90;;;;;;2659462;28;20668;-66
2021/11/07 03:24:52;;;;;;;29.73;21.55;;;1.70;99.90;;;;;;2663011;28;20223;-66
2021/11/07 03:26:14;;;;;;;29.50;22.02;;;1.60;99.90;;;;;;2659305;28;20207;-66
2021/11/07 03:27:39;;;;;;;25.70;21.20;;;1.60;99.90;;;;;;2659116;28;20214;-66
2021/11/07 03:29:00;;;;;;;34.50;23.15;;;1.60;99.90;;;;;;2655634;28;20187;-66
2021/11/07 03:30:29;;;;;;;29.80;22.00;;;1.70;99.90;;;;;;2662818;28;20198;-66
2021/11/07 03:31:51;;;;;;;32.70;25.10;;;1.80;99.90;;;;;;2659043;28;20262;-66
2021/11/07 03:33:18;;;;;;;28.70;23.90;;;1.70;99.90;;;;;;2659341;28;20207;-66
2021/11/07 03:34:44;;;;;;;28.52;22.67;;;1.60;99.90;;;;;;2658063;28;20205;-66
2021/11/07 03:36:06;;;;;;;28.67;22.63;;;1.60;99.90;;;;;;2659232;28;20691;-66
2021/11/07 03:37:28;;;;;;;32.58;23.33;;;1.70;99.90;;;;;;2656746;28;20307;-66
2021/11/07 03:38:48;;;;;;;31.50;23.58;;;1.70;99.90;;;;;;2658351;28;20292;-66
2021/11/07 03:40:10;;;;;;;31.60;22.23;;;1.70;99.90;;;;;;2659178;28;20655;-66
2021/11/07 03:41:29;;;;;;;29.27;23.73;;;1.70;99.90;;;;;;2658898;28;20711;-66
2021/11/07 03:42:48;;;;;;;32.33;23.70;;;1.70;99.90;;;;;;2658963;28;20261;-65
2021/11/07 03:44:07;;;;;;;28.30;22.88;;;1.60;99.90;;;;;;2658124;28;20253;-66
2021/11/07 03:45:27;;;;;;;28.92;22.80;;;1.60;99.90;;;;;;2658883;28;20230;-66
2021/11/07 03:46:48;;;;;;;32.95;23.35;;;1.70;99.90;;;;;;2655153;28;20215;-66
2021/11/07 03:48:06;;;;;;;29.88;23.55;;;1.70;99.90;;;;;;2661100;28;20249;-66
2021/11/07 03:49:26;;;;;;;31.05;24.60;;;1.60;99.90;;;;;;2660386;28;20203;-66
2021/11/07 03:52:13;;;;;;;30.58;24.15;;;1.60;99.90;;;;;;2669860;26;20232;-66
2021/11/07 03:53:32;;;;;;;31.95;24.80;;;1.50;99.90;;;;;;2691837;28;20200;-66
2021/11/07 03:54:50;;;;;;;36.85;25.50;;;1.60;99.90;;;;;;2687352;28;20235;-66
2021/11/07 03:56:10;;;;;;;33.17;24.05;;;1.60;99.90;;;;;;2690402;28;20671;-66
2021/11/07 03:57:29;;;;;;;32.60;23.65;;;1.60;99.90;;;;;;2688665;28;20204;-66
2021/11/07 03:58:48;;;;;;;32.05;22.52;;;1.60;99.90;;;;;;2685012;28;20271;-66
2021/11/07 04:00:09;;;;;;;31.45;24.10;;;1.60;99.90;;;;;;2688735;28;20688;-65
2021/11/07 04:01:28;;;;;;;30.30;23.20;;;1.70;99.90;;;;;;2686569;28;20197;-66
2021/11/07 04:02:47;;;;;;;32.72;24.13;;;1.60;99.90;;;;;;2685345;28;20645;-66
2021/11/07 04:04:07;;;;;;;30.98;23.60;;;1.60;99.90;;;;;;2686831;28;20205;-66
2021/11/07 04:05:26;;;;;;;29.98;22.90;;;1.50;99.90;;;;;;2688665;28;20270;-66
2021/11/07 04:06:44;;;;;;;29.13;23.75;;;1.50;99.90;;;;;;2689625;28;20197;-66
2021/11/07 04:08:03;;;;;;;33.45;25.85;;;1.50;99.90;;;;;;2681838;28;20247;-66
2021/11/07 04:09:24;;;;;;;30.40;24.00;;;1.50;99.90;;;;;;2691726;28;20238;-66
2021/11/07 04:13:28;;;;;;;29.38;23.50;;;1.50;99.90;;;;;;2675960;28;20244;-66
2021/11/07 04:14:47;;;;;;;28.95;22.73;;;1.60;99.90;;;;;;2680922;28;20202;-66
2021/11/07 04:16:07;;;;;;;31.67;23.67;;;1.60;99.90;;;;;;2679162;28;20202;-65
2021/11/07 04:17:26;;;;;;;31.83;22.58;;;1.60;99.90;;;;;;2679990;28;20632;-65
2021/11/07 04:18:46;;;;;;;32.20;23.95;;;1.50;99.90;;;;;;2683997;28;20320;-66
2021/11/07 04:20:06;;;;;;;29.20;24.15;;;1.60;99.90;;;;;;2683814;28;20255;-66
2021/11/07 04:21:25;;;;;;;31.15;23.15;;;1.50;99.90;;;;;;2679712;28;20197;-66
2021/11/07 04:22:46;;;;;;;28.35;21.88;;;1.50;99.90;;;;;;2681527;28;20201;-66
2021/11/07 04:24:05;;;;;;;31.08;22.98;;;1.50;99.90;;;;;;2682464;28;20205;-66
2021/11/07 04:25:24;;;;;;;31.95;23.98;;;1.60;99.90;;;;;;2680110;28;20768;-65
2021/11/07 04:26:43;;;;;;;29.80;24.25;;;1.60;99.90;;;;;;2675618;28;20686;-66
2021/11/07 04:28:06;;;;;;;32.00;22.88;;;1.50;99.90;;;;;;2678360;28;20406;-66
2021/11/07 04:29:26;;;;;;;30.30;23.48;;;1.60;99.90;;;;;;2678843;28;20266;-66
2021/11/07 04:33:35;;;;;;;30.25;23.67;;;1.60;99.90;;;;;;2628196;26;20222;-66
2021/11/07 04:34:54;;;;;;;27.23;23.20;;;1.50;99.90;;;;;;2687890;28;20561;-66
2021/11/07 04:36:13;;;;;;;34.22;23.10;;;1.50;99.90;;;;;;2690252;28;20290;-66
2021/11/07 04:37:31;;;;;;;29.40;21.90;;;1.40;99.90;;;;;;2687629;28;20204;-66
2021/11/07 04:38:50;;;;;;;29.13;24.20;;;1.40;99.90;;;;;;2687751;28;20208;-66
2021/11/07 04:40:12;;;;;;;28.33;22.52;;;1.40;99.90;;;;;;2683430;28;20223;-66
2021/11/07 04:41:30;;;;;;;43.83;23.17;;;1.40;99.90;;;;;;2682076;28;20347;-66
2021/11/07 04:42:48;;;;;;;32.40;23.05;;;1.30;99.90;;;;;;2690087;28;20203;-66
2021/11/07 04:44:07;;;;;;;29.07;23.40;;;1.20;99.90;;;;;;2680335;28;20282;-66
2021/11/07 04:45:28;;;;;;;29.50;23.00;;;1.10;99.90;;;;;;2680781;28;20494;-66
2021/11/07 04:46:47;;;;;;;29.10;22.35;;;1.10;99.90;;;;;;2681321;28;20729;-66
2021/11/07 04:48:06;;;;;;;29.92;23.27;;;1.10;99.90;;;;;;2684749;28;20651;-66
2021/11/07 04:49:24;;;;;;;28.42;22.70;;;1.10;99.90;;;;;;2687740;28;20209;-66
2021/11/07 04:50:43;;;;;;;29.75;22.65;;;1.10;99.90;;;;;;2685235;28;20277;-66
2021/11/07 04:52:03;;;;;;;36.97;22.88;;;1.10;99.90;;;;;;2684338;28;20226;-66
2021/11/07 04:53:21;;;;;;;33.97;23.67;;;1.10;99.90;;;;;;2682806;28;20206;-65
2021/11/07 04:54:40;;;;;;;39.67;22.98;;;1.10;99.90;;;;;;2684649;28;20297;-66
2021/11/07 04:55:59;;;;;;;42.70;23.88;;;1.20;99.90;;;;;;2684096;28;20197;-66
2021/11/07 04:57:18;;;;;;;166.57;34.30;;;1.20;99.90;;;;;;2682739;28;20220;-66
2021/11/07 04:58:40;;;;;;;68.68;24.33;;;1.20;99.90;;;;;;2688469;28;20197;-66
2021/11/07 04:59:57;;;;;;;95.18;27.88;;;1.20;99.90;;;;;;2689452;28;20686;-66
2021/11/07 05:01:18;;;;;;;89.55;29.55;;;1.20;99.90;;;;;;2690182;28;20205;-65
2021/11/07 05:02:37;;;;;;;66.85;24.38;;;1.20;99.90;;;;;;2688510;28;21002;-66
2021/11/07 05:03:56;;;;;;;152.48;35.63;;;1.20;99.90;;;;;;2688055;28;20277;-66
2021/11/07 05:05:16;;;;;;;182.27;36.25;;;1.10;99.90;;;;;;2685721;28;20776;-66
2021/11/07 05:06:35;;;;;;;169.60;33.17;;;1.10;99.90;;;;;;2685130;28;20209;-66
2021/11/07 05:07:55;;;;;;;117.68;31.60;;;1.10;99.90;;;;;;2689970;28;20198;-66
2021/11/07 05:09:14;;;;;;;187.02;35.53;;;1.10;99.90;;;;;;2681063;28;20255;-66
2021/11/07 05:10:34;;;;;;;257.55;38.13;;;1.00;99.90;;;;;;2687687;28;20197;-66
2021/11/07 05:11:53;;;;;;;265.77;40.65;;;1.00;99.90;;;;;;2684539;28;20287;-66
2021/11/07 05:13:12;;;;;;;122.85;30.17;;;1.00;99.90;;;;;;2689545;28;20253;-66
2021/11/07 05:14:31;;;;;;;98.70;31.67;;;1.00;99.90;;;;;;2688843;28;20678;-66
2021/11/07 05:15:48;;;;;;;85.97;27.95;;;1.00;99.90;;;;;;2686544;28;20254;-66
2021/11/07 05:17:09;;;;;;;110.03;28.73;;;1.00;99.90;;;;;;2684686;28;20737;-66
2021/11/07 05:18:28;;;;;;;155.30;30.50;;;1.00;99.90;;;;;;2684471;28;20452;-66
2021/11/07 05:19:46;;;;;;;172.63;37.63;;;0.90;99.90;;;;;;2684694;28;20330;-66
2021/11/07 05:21:05;;;;;;;131.35;30.17;;;0.90;99.90;;;;;;2686636;28;20200;-66
2021/11/07 05:22:24;;;;;;;98.55;28.02;;;1.00;99.90;;;;;;2690221;28;20201;-66
2021/11/07 05:23:43;;;;;;;75.80;26.63;;;1.00;99.90;;;;;;2689217;28;20571;-65
2021/11/07 05:25:02;;;;;;;54.95;28.17;;;1.00;99.90;;;;;;2684362;28;20209;-66
2021/11/07 05:26:20;;;;;;;39.08;23.65;;;1.00;99.90;;;;;;2685324;28;20286;-66
2021/11/07 05:27:40;;;;;;;66.00;25.92;;;1.00;99.90;;;;;;2690478;28;20201;-66
2021/11/07 05:28:58;;;;;;;50.95;25.88;;;1.10;99.90;;;;;;2686161;28;20760;-66
2021/11/07 05:30:19;;;;;;;45.30;26.85;;;1.00;99.90;;;;;;2679996;28;20209;-66
2021/11/07 05:31:38;;;;;;;43.17;25.80;;;1.00;99.90;;;;;;2688418;28;20292;-66
2021/11/07 05:32:57;;;;;;;32.10;23.25;;;1.00;99.90;;;;;;2686610;28;20216;-66
2021/11/07 05:34:16;;;;;;;41.53;25.13;;;0.90;99.90;;;;;;2686230;28;20258;-65
2021/11/07 05:35:35;;;;;;;34.78;24.40;;;0.90;99.90;;;;;;2689610;28;20715;-66
2021/11/07 05:36:54;;;;;;;34.25;24.15;;;1.00;99.90;;;;;;2682745;28;20204;-66
2021/11/07 05:38:13;;;;;;;36.95;24.52;;;1.00;99.90;;;;;;2689676;28;20197;-66
2021/11/07 05:39:32;;;;;;;33.58;24.40;;;1.00;99.90;;;;;;2680487;28;20235;-66
2021/11/07 05:40:51;;;;;;;31.60;24.15;;;1.10;99.90;;;;;;2685061;28;20250;-66
2021/11/07 05:42:11;;;;;;;35.78;25.08;;;1.00;99.90;;;;;;2689382;28;20193;-66
2021/11/07 05:43:30;;;;;;;29.70;23.00;;;1.00;99.90;;;;;;2681118;28;20694;-66
2021/11/07 05:44:49;;;;;;;29.25;23.30;;;1.10;99.90;;;;;;2681067;28;20251;-66
2021/11/07 05:46:08;;;;;;;29.70;23.45;;;1.10;99.90;;;;;;2687692;28;20233;-66
2021/11/07 05:47:27;;;;;;;31.45;23.60;;;1.00;99.90;;;;;;2687808;28;20197;-66
2021/11/07 05:48:47;;;;;;;30.05;23.95;;;1.00;99.90;;;;;;2681418;28;20889;-66
2021/11/07 05:50:07;;;;;;;31.45;23.58;;;1.00;99.90;;;;;;2682503;28;20267;-66
2021/11/07 05:51:26;;;;;;;33.33;24.15;;;0.90;99.90;;;;;;2687216;28;20723;-66
2021/11/07 05:52:44;;;;;;;29.77;21.35;;;1.00;99.90;;;;;;2685337;28;20193;-66
2021/11/07 05:54:04;;;;;;;31.75;22.50;;;0.90;99.90;;;;;;2679594;28;20284;-66
2021/11/07 05:55:23;;;;;;;28.63;21.73;;;0.90;99.90;;;;;;2684254;28;20213;-66
2021/11/07 05:56:41;;;;;;;29.90;23.33;;;0.90;99.90;;;;;;2688219;28;20197;-66
2021/11/07 05:58:00;;;;;;;28.85;23.33;;;1.00;99.90;;;;;;2679658;28;20643;-66
2021/11/07 05:59:18;;;;;;;28.00;21.63;;;1.00;99.90;;;;;;2684194;28;20208;-66
2021/11/07 06:00:38;;;;;;;30.98;25.02;;;1.00;99.90;;;;;;2683334;28;20225;-66
2021/11/07 06:01:57;;;;;;;32.20;23.20;;;1.00;99.90;;;;;;2687981;28;20230;-66
2021/11/07 06:03:16;;;;;;;33.60;22.50;;;1.00;99.90;;;;;;2689957;28;20197;-66
2021/11/07 06:04:35;;;;;;;29.73;22.35;;;1.00;99.90;;;;;;2682026;28;20246;-66
2021/11/07 06:05:54;;;;;;;28.45;22.92;;;1.00;99.90;;;;;;2682658;28;20224;-66
2021/11/07 06:07:13;;;;;;;30.95;23.23;;;0.90;99.90;;;;;;2685108;28;20205;-66
2021/11/07 06:08:32;;;;;;;28.67;22.55;;;0.90;99.90;;;;;;2685140;28;20302;-66
2021/11/07 06:09:51;;;;;;;29.67;23.48;;;0.90;99.90;;;;;;2686861;28;20197;-66
2021/11/07 06:11:10;;;;;;;29.50;22.30;;;0.90;99.90;;;;;;2683453;28;20210;-66
2021/11/07 06:12:28;;;;;;;33.85;23.92;;;1.00;99.90;;;;;;2679733;28;20210;-66
2021/11/07 06:13:47;;;;;;;28.15;22.52;;;1.00;99.90;;;;;;2684805;28;20247;-66
2021/11/07 06:15:07;;;;;;;27.75;22.75;;;1.00;99.90;;;;;;2683623;28;20258;-66
2021/11/07 06:16:26;;;;;;;30.55;22.40;;;1.00;99.90;;;;;;2680458;28;20694;-65
2021/11/07 06:17:45;;;;;;;29.88;23.02;;;0.90;99.90;;;;;;2689202;28;20561;-66
2021/11/07 06:19:05;;;;;;;29.77;22.45;;;1.00;99.90;;;;;;2682433;28;20259;-66
2021/11/07 06:20:25;;;;;;;31.05;23.05;;;1.10;99.90;;;;;;2683631;28;20213;-67
2021/11/07 06:21:45;;;;;;;31.63;23.30;;;1.10;99.90;;;;;;2685025;28;20205;-67
2021/11/07 06:23:05;;;;;;;30.85;22.23;;;1.10;99.90;;;;;;2685595;28;20738;-67
2021/11/07 06:24:26;;;;;;;31.20;23.52;;;1.10;99.90;;;;;;2687641;28;20672;-67
2021/11/07 06:25:45;;;;;;;27.92;21.60;;;1.20;99.90;;;;;;2689334;28;20300;-67
2021/11/07 06:27:04;;;;;;;31.00;23.83;;;1.20;99.90;;;;;;2680053;28;20214;-67
2021/11/07 06:28:23;;;;;;;30.08;22.80;;;1.20;99.90;;;;;;2687240;28;20200;-67
2021/11/07 06:29:43;;;;;;;27.17;22.80;;;1.20;99.90;;;;;;2687450;28;20288;-67
2021/11/07 06:31:03;;;;;;;31.85;23.02;;;1.30;99.90;;;;;;2691667;28;20297;-67
2021/11/07 06:32:22;;;;;;;28.23;21.83;;;1.30;99.90;;;;;;2685518;28;20589;-67
2021/11/07 06:33:41;;;;;;;29.13;21.45;;;1.30;99.90;;;;;;2689478;28;20206;-66
2021/11/07 06:35:00;;;;;;;30.45;21.13;;;1.30;99.90;;;;;;2690139;28;20201;-67
2021/11/07 06:36:19;;;;;;;30.77;22.58;;;1.40;99.90;;;;;;2685901;28;20205;-66
2021/11/07 06:37:38;;;;;;;32.05;21.30;;;1.50;99.90;;;;;;2690038;28;20209;-67
2021/11/07 06:38:58;;;;;;;29.17;21.88;;;1.60;99.90;;;;;;2682249;28;20202;-66
2021/11/07 06:40:17;;;;;;;33.08;23.98;;;1.60;99.90;;;;;;2681451;28;20527;-67
2021/11/07 06:41:35;;;;;;;29.33;21.63;;;1.70;99.90;;;;;;2688462;28;20209;-67
2021/11/07 06:42:54;;;;;;;32.42;22.92;;;1.80;99.90;;;;;;2686124;28;20202;-67
2021/11/07 06:44:12;;;;;;;35.03;23.17;;;1.80;99.90;;;;;;2686968;28;20613;-67
2021/11/07 06:45:32;;;;;;;31.67;21.73;;;1.90;99.90;;;;;;2680940;28;20205;-67
2021/11/07 06:46:51;;;;;;;28.80;23.13;;;1.90;99.90;;;;;;2691481;28;20418;-67
2021/11/07 06:48:10;;;;;;;32.92;23.65;;;2.00;99.90;;;;;;2687461;28;20560;-67
2021/11/07 06:49:31;;;;;;;30.02;23.58;;;2.00;99.90;;;;;;2680258;28;20209;-67
2021/11/07 06:50:50;;;;;;;30.63;22.90;;;2.10;99.90;;;;;;2686320;28;20192;-67
2021/11/07 06:52:10;;;;;;;30.70;22.88;;;2.20;99.90;;;;;;2685868;28;20255;-67
2021/11/07 06:53:29;;;;;;;34.60;23.52;;;2.20;99.90;;;;;;2690707;28;20254;-67
2021/11/07 06:54:48;;;;;;;31.70;23.27;;;2.30;99.90;;;;;;2686988;28;20221;-67
2021/11/07 06:56:08;;;;;;;29.98;23.70;;;2.20;99.90;;;;;;2686599;28;20201;-67
2021/11/07 06:57:26;;;;;;;25.88;22.10;;;2.20;99.90;;;;;;2685959;28;20274;-67
2021/11/07 06:58:45;;;;;;;29.17;23.05;;;2.20;99.90;;;;;;2688775;28;20258;-67
2021/11/07 07:00:07;;;;;;;26.95;21.95;;;2.20;99.90;;;;;;2694925;28;20200;-67
2021/11/07 07:01:25;;;;;;;32.15;22.35;;;2.30;99.90;;;;;;2691344;28;20345;-67
2021/11/07 07:02:44;;;;;;;28.92;22.17;;;2.30;99.90;;;;;;2690862;28;20205;-67